createdAt,value
2019-04-20T00:01:42.801Z,39.13
2019-04-20T00:06:50.954Z,26.62
2019-04-20T00:12:01.611Z,30.55
2019-04-20T00:16:56.866Z,33.80
2019-04-20T00:22:12.317Z,30.32
2019-04-20T00:27:37.075Z,25.02
2019-04-20T00:32:39.691Z,28.20
2019-04-20T00:37:26.123Z,25.25
2019-04-20T00:42:37.987Z,26.42
2019-04-20T00:47:45.445Z,28.30
2019-04-20T00:52:58.313Z,24.87
2019-04-20T00:57:51.418Z,26.27
2019-04-20T01:03:08.038Z,26.48
2019-04-20T01:08:13.287Z,24.77
2019-04-20T01:13:20.118Z,23.98
2019-04-20T01:18:21.723Z,24.13
2019-04-20T01:23:34.635Z,29.50
2019-04-20T01:28:46.430Z,25.02
2019-04-20T01:33:46.160Z,23.42
2019-04-20T01:38:55.434Z,21.73
2019-04-20T01:43:46.161Z,22.77
2019-04-20T01:48:50.622Z,23.75
2019-04-20T01:54:11.803Z,22.85
2019-04-20T01:59:33.464Z,22.27
2019-04-20T02:04:41.004Z,22.80
2019-04-20T02:09:49.912Z,22.98
2019-04-20T02:14:52.458Z,20.32
2019-04-20T02:20:10.428Z,30.32
2019-04-20T02:24:57.790Z,26.93
2019-04-20T02:30:34.364Z,28.05
2019-04-20T02:36:05.023Z,21.77
2019-04-20T02:41:03.489Z,22.82
2019-04-20T02:45:57.381Z,22.93
2019-04-20T02:51:18.555Z,24.07
2019-04-20T03:01:38.026Z,25.35
2019-04-20T03:06:35.043Z,22.55
2019-04-20T03:11:59.699Z,21.55
2019-04-20T03:16:50.729Z,19.30
2019-04-20T03:22:03.841Z,22.77
2019-04-20T03:27:07.540Z,26.05
2019-04-20T03:32:56.142Z,22.83
2019-04-20T03:37:34.727Z,22.95
2019-04-20T03:42:14.232Z,25.07
2019-04-20T03:47:30.363Z,25.35
2019-04-20T03:53:07.332Z,22.05
2019-04-20T03:58:14.238Z,21.55
2019-04-20T04:03:51.259Z,22.50
2019-04-20T04:08:32.626Z,23.93
2019-04-20T04:13:29.241Z,23.93
2019-04-20T04:18:38.682Z,20.02
2019-04-20T04:23:55.868Z,21.70
2019-04-20T04:29:00.641Z,20.68
2019-04-20T04:34:22.889Z,26.97
2019-04-20T04:39:16.681Z,24.10
2019-04-20T04:44:14.822Z,26.93
2019-04-20T04:49:14.751Z,39.60
2019-04-20T04:54:22.201Z,50.05
2019-04-20T04:59:14.946Z,49.80
2019-04-20T05:04:40.485Z,45.28
2019-04-20T05:09:25.631Z,54.42
2019-04-20T05:14:43.257Z,55.43
2019-04-20T05:19:53.149Z,49.23
2019-04-20T05:25:06.787Z,59.33
2019-04-20T05:29:48.817Z,58.40
2019-04-20T05:35:14.980Z,54.05
2019-04-20T05:40:16.457Z,60.07
2019-04-20T05:45:22.054Z,52.62
2019-04-20T05:51:38.037Z,50.67
2019-04-20T05:56:39.745Z,54.20
2019-04-20T06:01:52.675Z,47.65
2019-04-20T06:06:52.060Z,52.27
2019-04-20T06:12:07.812Z,51.23
2019-04-20T06:17:11.395Z,50.17
2019-04-20T06:22:27.193Z,52.13
2019-04-20T06:27:23.929Z,51.68
2019-04-20T06:33:46.405Z,56.07
2019-04-20T06:38:50.942Z,45.55
2019-04-20T06:43:42.176Z,54.63
2019-04-20T06:48:46.101Z,47.88
2019-04-20T06:53:51.570Z,39.33
2019-04-20T06:59:08.186Z,49.93
2019-04-20T07:04:31.736Z,46.58
2019-04-20T07:09:13.903Z,42.23
2019-04-20T07:14:01.118Z,48.50
2019-04-20T07:19:25.336Z,53.25
2019-04-20T07:24:38.602Z,45.50
2019-04-20T07:29:35.210Z,49.13
2019-04-20T07:34:45.599Z,49.85
2019-04-20T07:39:40.682Z,44.93
2019-04-20T07:44:55.258Z,45.83
2019-04-20T07:49:52.372Z,45.43
2019-04-20T07:55:18.319Z,45.80
2019-04-20T08:00:08.118Z,39.45
2019-04-20T08:05:15.502Z,44.38
2019-04-20T08:10:18.973Z,42.58
2019-04-20T08:15:46.164Z,34.95
2019-04-20T08:20:42.811Z,37.15
2019-04-20T08:25:36.014Z,34.53
2019-04-20T08:31:02.393Z,33.63
2019-04-20T08:36:12.285Z,34.00
2019-04-20T08:41:07.300Z,31.75
2019-04-20T08:46:20.518Z,25.30
2019-04-20T08:51:25.766Z,23.83
2019-04-20T08:56:21.977Z,27.20
2019-04-20T09:01:18.421Z,27.10
2019-04-20T09:06:36.451Z,18.05
2019-04-20T09:11:51.598Z,20.23
2019-04-20T09:16:41.832Z,17.37
2019-04-20T09:21:46.269Z,16.70
2019-04-20T09:27:01.208Z,22.48
2019-04-20T09:32:13.933Z,17.90
2019-04-20T09:37:38.191Z,18.30
2019-04-20T09:42:34.652Z,18.92
2019-04-20T09:47:43.332Z,18.70
2019-04-20T09:52:57.065Z,14.87
2019-04-20T09:58:02.682Z,19.50
2019-04-20T10:02:54.597Z,19.27
2019-04-20T10:08:01.247Z,16.17
2019-04-20T10:13:05.531Z,14.10
2019-04-20T10:18:08.038Z,13.98
2019-04-20T10:23:12.461Z,13.78
2019-04-20T10:28:15.934Z,11.95
2019-04-20T10:33:19.577Z,12.85
2019-04-20T10:38:27.586Z,7.35
2019-04-20T10:43:33.193Z,10.98
2019-04-20T10:48:40.285Z,9.73
2019-04-20T10:53:42.361Z,9.58
2019-04-20T10:58:47.494Z,7.60
2019-04-20T11:03:50.816Z,6.53
2019-04-20T11:08:54.045Z,10.10
2019-04-20T11:14:01.473Z,9.47
2019-04-20T11:19:03.282Z,10.13
2019-04-20T11:24:08.159Z,10.80
2019-04-20T11:29:11.493Z,8.53
2019-04-20T11:34:21.950Z,6.30
2019-04-20T11:39:20.904Z,6.85
2019-04-20T11:44:26.834Z,3.17
2019-04-20T11:49:29.263Z,10.72
2019-04-20T11:54:32.489Z,5.78
2019-04-20T11:59:37.024Z,5.92
2019-04-20T12:04:53.376Z,6.75
2019-04-20T12:09:51.433Z,4.75
2019-04-20T12:14:55.253Z,6.03
2019-04-20T12:19:59.937Z,6.55
2019-04-20T12:25:03.490Z,4.80
2019-04-20T12:30:08.300Z,5.33
2019-04-20T12:35:12.413Z,4.08
2019-04-20T12:40:19.926Z,5.12
2019-04-20T12:45:25.831Z,5.08
2019-04-20T12:50:29.821Z,4.03
2019-04-20T12:55:34.650Z,6.92
2019-04-20T13:00:45.885Z,6.40
2019-04-20T13:05:50.058Z,2.80
2019-04-20T13:10:58.382Z,5.53
2019-04-20T13:16:08.229Z,3.08
2019-04-20T13:21:21.073Z,4.20
2019-04-20T13:26:25.027Z,4.72
2019-04-20T13:31:29.687Z,5.53
2019-04-20T13:36:34.465Z,3.33
2019-04-20T13:41:38.159Z,5.85
2019-04-20T13:46:41.399Z,3.62
2019-04-20T13:51:44.679Z,3.20
2019-04-20T13:56:50.085Z,2.70
2019-04-20T14:02:00.857Z,6.60
2019-04-20T14:07:05.732Z,4.17
2019-04-20T14:12:18.755Z,2.27
2019-04-20T14:17:15.077Z,5.30
2019-04-20T14:22:18.798Z,2.85
2019-04-20T14:27:21.975Z,1.95
2019-04-20T14:32:25.286Z,2.60
2019-04-20T14:37:28.963Z,3.62
2019-04-20T14:42:41.838Z,3.77
2019-04-20T14:47:39.436Z,2.30
2019-04-20T14:52:43.818Z,3.57
2019-04-20T14:57:47.788Z,2.27
2019-04-20T15:02:52.130Z,2.90
2019-04-20T15:07:56.636Z,3.90
2019-04-20T15:13:02.797Z,2.55
2019-04-20T15:18:09.416Z,3.30
2019-04-20T15:23:21.654Z,6.42
2019-04-20T15:28:26.147Z,6.25
2019-04-20T15:33:30.756Z,4.87
2019-04-20T15:38:35.382Z,2.85
2019-04-20T15:43:39.407Z,2.27
2019-04-20T15:48:43.898Z,8.18
2019-04-20T15:53:47.513Z,3.98
2019-04-20T15:58:50.647Z,3.58
2019-04-20T16:03:59.280Z,3.70
2019-04-20T16:09:04.504Z,3.60
2019-04-20T16:14:09.082Z,3.92
2019-04-20T16:19:25.689Z,2.08
2019-04-20T16:24:19.623Z,6.78
2019-04-20T16:29:23.909Z,5.80
2019-04-20T16:34:27.613Z,6.65
2019-04-20T16:39:32.050Z,3.40
2019-04-20T16:44:35.717Z,6.15
2019-04-20T16:49:39.117Z,4.53
2019-04-20T16:54:42.311Z,3.90
2019-04-20T16:59:49.003Z,7.03
2019-04-20T17:04:53.302Z,3.37
2019-04-20T17:09:56.000Z,3.27
2019-04-20T17:14:59.126Z,6.03
2019-04-20T17:20:03.941Z,5.08
2019-04-20T17:25:08.282Z,3.67
2019-04-20T17:30:33.656Z,6.75
2019-04-20T17:35:47.304Z,6.85
2019-04-20T17:41:01.802Z,3.65
2019-04-20T17:45:55.794Z,6.55
2019-04-20T17:51:15.368Z,7.27
2019-04-20T17:56:01.647Z,10.23
2019-04-20T18:01:24.332Z,5.58
2019-04-20T18:06:34.819Z,5.62
2019-04-20T18:11:25.258Z,4.27
2019-04-20T18:16:53.387Z,7.65
2019-04-20T18:21:43.570Z,8.45
2019-04-20T18:27:03.922Z,8.30
2019-04-20T18:31:59.650Z,8.13
2019-04-20T18:37:06.449Z,5.70
2019-04-20T18:42:13.090Z,6.92
2019-04-20T18:47:33.090Z,5.03
2019-04-20T18:52:18.090Z,5.45
2019-04-20T18:57:27.261Z,9.20
2019-04-20T19:02:31.175Z,6.83
2019-04-20T19:07:40.145Z,6.80
2019-04-20T19:12:49.608Z,8.40
2019-04-20T19:18:36.765Z,8.38
2019-04-20T19:23:25.125Z,7.42
2019-04-20T19:28:36.848Z,6.93
2019-04-20T19:33:57.442Z,6.73
2019-04-20T19:38:52.388Z,9.48
2019-04-20T19:43:56.390Z,10.03
2019-04-20T19:48:56.587Z,8.88
2019-04-20T19:54:17.971Z,11.45
2019-04-20T19:59:13.635Z,14.55
2019-04-20T20:04:07.616Z,11.12
2019-04-20T20:09:12.834Z,10.13
2019-04-20T20:14:18.022Z,12.95
2019-04-20T20:19:37.153Z,11.28
2019-04-20T20:24:29.078Z,18.05
2019-04-20T20:29:38.468Z,21.45
2019-04-20T20:34:43.139Z,24.37
2019-04-20T20:39:53.611Z,20.27
2019-04-20T20:44:54.969Z,19.77
2019-04-20T20:50:33.879Z,25.55
2019-04-20T20:55:06.875Z,20.65
2019-04-20T21:00:19.367Z,20.57
2019-04-20T21:10:15.314Z,21.85
2019-04-20T21:15:22.534Z,18.80
2019-04-20T21:20:46.543Z,18.65
2019-04-20T21:25:37.791Z,20.77
2019-04-20T21:30:42.877Z,14.30
2019-04-20T21:35:47.026Z,14.33
2019-04-20T21:40:49.689Z,14.05
2019-04-20T21:45:59.408Z,15.28
2019-04-20T21:51:13.716Z,12.23
2019-04-20T21:56:03.905Z,21.23
2019-04-20T22:01:18.597Z,13.03
2019-04-20T22:06:13.956Z,14.60
2019-04-20T22:11:17.909Z,17.10
2019-04-20T22:16:22.657Z,16.25
2019-04-20T22:21:42.490Z,14.00
2019-04-20T22:26:41.565Z,12.47
2019-04-20T22:31:38.141Z,27.02
2019-04-20T22:36:45.530Z,17.02
2019-04-20T22:42:00.172Z,14.47
2019-04-20T22:47:00.619Z,13.10
2019-04-20T22:52:23.425Z,16.65
2019-04-20T22:57:27.886Z,15.35
2019-04-20T23:02:16.536Z,10.53
2019-04-20T23:07:20.978Z,13.90
2019-04-20T23:12:26.955Z,13.35
2019-04-20T23:17:35.932Z,16.93
2019-04-20T23:22:38.910Z,10.72
2019-04-20T23:27:40.757Z,11.95
2019-04-20T23:32:44.434Z,11.90
2019-04-20T23:37:48.518Z,11.25
2019-04-20T23:42:57.956Z,12.03
2019-04-20T23:48:08.486Z,15.30
2019-04-20T23:53:28.431Z,12.53
2019-04-20T23:58:18.142Z,10.43
